createdAt,value
2019-04-06T00:01:40.759Z,47.67
2019-04-06T00:06:37.881Z,43.40
2019-04-06T00:11:34.966Z,40.47
2019-04-06T00:16:32.122Z,42.30
2019-04-06T00:21:29.216Z,40.03
2019-04-06T00:26:26.211Z,44.77
2019-04-06T00:31:26.346Z,36.37
2019-04-06T00:36:23.307Z,48.30
2019-04-06T00:41:20.690Z,37.73
2019-04-06T00:46:17.710Z,41.27
2019-04-06T00:51:14.934Z,46.87
2019-04-06T00:56:11.973Z,38.27
2019-04-06T01:01:09.010Z,45.07
2019-04-06T01:06:06.083Z,38.10
2019-04-06T01:11:03.090Z,39.57
2019-04-06T01:16:00.069Z,33.77
2019-04-06T01:20:57.178Z,35.77
2019-04-06T01:25:54.279Z,32.07
2019-04-06T01:30:51.337Z,41.37
2019-04-06T01:35:48.302Z,33.37
2019-04-06T01:40:45.619Z,27.97
2019-04-06T01:45:42.682Z,43.13
2019-04-06T01:50:39.858Z,35.87
2019-04-06T01:55:36.794Z,35.37
2019-04-06T02:00:35.645Z,45.73
2019-04-06T02:05:33.011Z,44.63
2019-04-06T02:10:30.078Z,39.13
2019-04-06T02:15:27.042Z,40.67
2019-04-06T02:20:24.070Z,33.93
2019-04-06T02:25:21.133Z,34.57
2019-04-06T02:30:28.851Z,45.57
2019-04-06T02:35:44.341Z,38.00
2019-04-06T02:40:55.123Z,36.60
2019-04-06T02:45:52.395Z,45.23
2019-04-06T02:50:51.402Z,42.13
2019-04-06T02:55:48.431Z,42.77
2019-04-06T03:00:45.549Z,46.50
2019-04-06T03:05:42.618Z,43.33
2019-04-06T03:10:39.647Z,45.93
2019-04-06T03:15:36.733Z,39.77
2019-04-06T03:20:35.669Z,44.17
2019-04-06T03:25:32.715Z,45.13
2019-04-06T03:30:30.303Z,49.80
2019-04-06T03:35:27.745Z,34.83
2019-04-06T03:40:25.045Z,39.20
2019-04-06T03:45:22.004Z,39.23
2019-04-06T03:50:20.189Z,43.93
2019-04-06T03:55:17.310Z,43.53
2019-04-06T04:00:14.858Z,43.33
2019-04-06T04:05:11.916Z,43.33
2019-04-06T04:10:13.014Z,44.80
2019-04-06T04:15:10.376Z,62.50
2019-04-06T04:20:07.896Z,64.23
2019-04-06T04:25:05.036Z,63.93
2019-04-06T04:30:03.355Z,68.77
2019-04-06T04:35:00.761Z,69.90
2019-04-06T04:40:01.891Z,53.13
2019-04-06T04:44:59.230Z,60.77
2019-04-06T04:49:58.507Z,41.27
2019-04-06T04:54:55.668Z,49.43
2019-04-06T04:59:54.142Z,40.33
2019-04-06T05:04:51.133Z,58.27
2019-04-06T05:09:48.186Z,50.00
2019-04-06T05:15:14.718Z,44.70
2019-04-06T05:20:13.604Z,44.57
2019-04-06T05:25:10.744Z,41.13
2019-04-06T05:30:08.887Z,35.13
2019-04-06T05:35:06.329Z,41.10
2019-04-06T05:40:05.527Z,42.77
2019-04-06T05:45:05.327Z,43.17
2019-04-06T05:50:04.314Z,41.53
2019-04-06T05:55:03.919Z,36.43
2019-04-06T06:00:10.502Z,48.93
2019-04-06T06:05:10.427Z,46.53
2019-04-06T06:10:08.434Z,42.93
2019-04-06T06:15:08.766Z,50.23
2019-04-06T06:20:05.992Z,47.63
2019-04-06T06:25:05.071Z,37.93
2019-04-06T06:30:05.428Z,44.00
2019-04-06T06:35:04.246Z,53.30
2019-04-06T06:40:01.279Z,63.47
2019-04-06T06:44:58.472Z,71.40
2019-04-06T06:49:55.581Z,35.60
2019-04-06T06:54:52.642Z,34.23
2019-04-06T06:59:51.213Z,24.70
2019-04-06T07:04:54.942Z,22.03
2019-04-06T07:10:04.696Z,25.17
2019-04-06T07:14:53.781Z,30.13
2019-04-06T07:19:54.459Z,40.57
2019-04-06T07:24:51.969Z,24.60
2019-04-06T07:29:49.008Z,25.13
2019-04-06T07:34:46.005Z,27.73
2019-04-06T07:39:43.047Z,25.93
2019-04-06T07:44:47.814Z,27.13
2019-04-06T07:49:59.624Z,22.57
2019-04-06T07:54:56.808Z,29.17
2019-04-06T07:59:55.753Z,30.77
2019-04-06T08:04:55.917Z,18.83
2019-04-06T08:09:54.662Z,22.20
2019-04-06T08:14:53.679Z,21.73
2019-04-06T08:19:50.904Z,17.87
2019-04-06T08:24:49.902Z,17.90
2019-04-06T08:29:49.300Z,18.97
2019-04-06T08:34:46.395Z,16.93
2019-04-06T08:39:43.505Z,19.27
2019-04-06T08:44:40.569Z,18.23
2019-04-06T08:49:39.621Z,14.23
2019-04-06T08:54:41.079Z,18.73
2019-04-06T08:59:35.814Z,17.97
2019-04-06T09:04:34.755Z,19.13
2019-04-06T09:09:34.991Z,24.77
2019-04-06T09:14:31.969Z,18.90
2019-04-06T09:19:29.100Z,13.40
2019-04-06T09:24:26.211Z,15.57
2019-04-06T09:29:24.653Z,13.03
2019-04-06T09:34:22.270Z,16.80
2019-04-06T09:39:19.340Z,12.37
2019-04-06T09:44:20.607Z,16.30
2019-04-06T09:49:19.637Z,18.23
2019-04-06T09:54:16.513Z,10.27
2019-04-06T09:59:15.505Z,14.30
2019-04-06T10:04:29.738Z,19.47
2019-04-06T10:09:39.170Z,15.33
2019-04-06T10:14:38.497Z,18.90
2019-04-06T10:19:54.456Z,16.23
2019-04-06T10:24:56.237Z,16.67
2019-04-06T10:30:08.961Z,14.20
2019-04-06T10:35:08.430Z,13.97
2019-04-06T10:40:07.459Z,10.70
2019-04-06T10:45:06.372Z,14.63
2019-04-06T10:50:15.046Z,16.93
2019-04-06T10:55:19.977Z,22.87
2019-04-06T11:00:26.346Z,14.80
2019-04-06T11:05:37.431Z,12.60
2019-04-06T11:10:36.018Z,14.40
2019-04-06T11:15:37.615Z,22.20
2019-04-06T11:20:55.449Z,17.50
2019-04-06T11:26:04.281Z,13.77
2019-04-06T11:31:18.170Z,17.20
2019-04-06T11:36:20.226Z,25.20
2019-04-06T11:41:26.212Z,22.27
2019-04-06T11:46:28.076Z,18.83
2019-04-06T11:51:35.680Z,16.30
2019-04-06T11:56:35.546Z,15.63
2019-04-06T12:01:36.985Z,19.37
2019-04-06T12:06:35.915Z,17.17
2019-04-06T12:11:52.936Z,17.43
2019-04-06T12:16:55.805Z,22.10
2019-04-06T12:22:09.851Z,35.70
2019-04-06T12:27:25.653Z,18.00
2019-04-06T12:32:41.487Z,26.50
2019-04-06T12:37:57.016Z,20.43
2019-04-06T12:43:12.112Z,23.47
2019-04-06T12:48:10.871Z,25.17
2019-04-06T12:53:26.071Z,19.17
2019-04-06T12:58:30.978Z,21.37
2019-04-06T13:03:41.000Z,23.23
2019-04-06T13:08:52.002Z,21.80
2019-04-06T13:13:50.872Z,23.23
2019-04-06T13:18:57.232Z,25.77
2019-04-06T13:24:12.556Z,22.00
2019-04-06T13:29:18.525Z,24.63
2019-04-06T13:34:17.487Z,23.97
2019-04-06T13:39:16.295Z,21.30
2019-04-06T13:44:28.344Z,22.47
2019-04-06T13:49:29.920Z,24.57
2019-04-06T13:54:37.676Z,21.33
2019-04-06T13:59:46.822Z,29.43
2019-04-06T14:04:48.917Z,26.93
2019-04-06T14:09:45.875Z,23.63
2019-04-06T14:14:53.651Z,22.90
2019-04-06T14:19:53.635Z,24.73
2019-04-06T14:24:52.871Z,22.30
2019-04-06T14:29:55.874Z,23.77
2019-04-06T14:34:59.274Z,24.33
2019-04-06T14:40:13.900Z,23.80
2019-04-06T14:45:10.869Z,22.37
2019-04-06T14:50:20.614Z,20.63
2019-04-06T14:55:21.452Z,27.50
2019-04-06T15:00:20.352Z,28.30
2019-04-06T15:05:19.204Z,26.50
2019-04-06T15:10:20.653Z,32.37
2019-04-06T15:15:20.925Z,44.50
2019-04-06T15:20:31.515Z,52.00
2019-04-06T15:25:33.261Z,31.87
2019-04-06T15:30:36.560Z,42.77
2019-04-06T15:35:51.681Z,64.10
2019-04-06T15:41:08.944Z,46.20
2019-04-06T15:46:07.804Z,52.57
2019-04-06T15:51:24.772Z,71.83
2019-04-06T15:56:40.392Z,56.37
2019-04-06T16:02:01.524Z,58.07
2019-04-06T16:07:15.473Z,61.00
2019-04-06T16:12:19.962Z,38.37
2019-04-06T16:17:24.055Z,33.07
2019-04-06T16:22:24.032Z,29.97
2019-04-06T16:27:24.853Z,36.60
2019-04-06T16:32:41.102Z,36.90
2019-04-06T16:37:48.287Z,35.50
2019-04-06T16:42:49.218Z,37.03
2019-04-06T16:48:02.057Z,39.57
2019-04-06T16:53:04.200Z,43.33
2019-04-06T16:58:21.831Z,39.60
2019-04-06T17:03:20.997Z,32.13
2019-04-06T17:08:25.921Z,35.93
2019-04-06T17:13:24.922Z,38.73
2019-04-06T17:18:23.917Z,42.67
2019-04-06T17:23:23.841Z,28.53
2019-04-06T17:28:23.915Z,33.90
2019-04-06T17:33:25.638Z,29.50
2019-04-06T17:38:37.322Z,24.90
2019-04-06T17:43:37.379Z,30.97
2019-04-06T17:48:45.366Z,29.83
2019-04-06T17:53:47.513Z,32.00
2019-04-06T17:58:52.554Z,27.50
2019-04-06T18:03:49.642Z,35.70
2019-04-06T18:08:48.578Z,63.47
2019-04-06T18:13:48.398Z,82.10
2019-04-06T18:18:45.665Z,62.47
2019-04-06T18:23:43.807Z,72.57
2019-04-06T18:28:41.701Z,84.17
2019-04-06T18:33:41.227Z,50.40
2019-04-06T18:38:42.726Z,41.40
2019-04-06T18:43:40.553Z,37.73
2019-04-06T18:48:38.431Z,57.97
2019-04-06T18:53:37.638Z,48.97
2019-04-06T18:58:35.474Z,48.83
2019-04-06T19:03:34.734Z,62.40
2019-04-06T19:08:32.365Z,46.03
2019-04-06T19:13:31.625Z,43.50
2019-04-06T19:18:28.799Z,25.93
2019-04-06T19:23:27.706Z,13.97
2019-04-06T19:28:25.731Z,11.10
2019-04-06T19:33:25.585Z,7.53
2019-04-06T19:38:22.266Z,9.30
2019-04-06T19:43:19.482Z,7.67
2019-04-06T19:48:16.624Z,7.63
2019-04-06T19:53:13.671Z,11.33
2019-04-06T19:58:10.842Z,9.07
2019-04-06T20:03:07.924Z,8.70
2019-04-06T20:08:05.105Z,7.77
2019-04-06T20:13:02.291Z,8.03
2019-04-06T20:17:59.504Z,7.57
2019-04-06T20:22:56.930Z,6.83
2019-04-06T20:27:54.311Z,6.13
2019-04-06T20:32:53.775Z,7.07
2019-04-06T20:37:51.131Z,8.53
2019-04-06T20:42:50.055Z,8.57
2019-04-06T20:47:47.638Z,14.90
2019-04-06T20:52:44.975Z,17.07
2019-04-06T20:57:42.631Z,16.60
2019-04-06T21:02:40.288Z,15.17
2019-04-06T21:07:37.411Z,10.60
2019-04-06T21:12:34.482Z,10.10
2019-04-06T21:17:31.568Z,15.30
2019-04-06T21:22:28.547Z,13.50
2019-04-06T21:27:26.101Z,11.03
2019-04-06T21:32:23.380Z,10.77
2019-04-06T21:37:22.043Z,9.67
2019-04-06T21:42:19.820Z,14.13
2019-04-06T21:47:16.882Z,7.80
2019-04-06T21:52:13.856Z,7.57
2019-04-06T21:57:10.967Z,12.77
2019-04-06T22:02:09.630Z,10.80
2019-04-06T22:07:06.808Z,7.63
2019-04-06T22:12:03.858Z,8.97
2019-04-06T22:17:01.497Z,9.00
2019-04-06T22:21:58.783Z,5.73
2019-04-06T22:26:56.389Z,6.13
2019-04-06T22:31:55.245Z,6.07
2019-04-06T22:36:52.665Z,7.03
2019-04-06T22:41:50.608Z,7.43
2019-04-06T22:46:47.740Z,6.63
2019-04-06T22:51:47.024Z,9.07
2019-04-06T22:56:44.238Z,6.43
2019-04-06T23:01:42.554Z,5.23
2019-04-06T23:06:41.597Z,7.07
2019-04-06T23:11:38.780Z,7.00
2019-04-06T23:16:35.846Z,9.50
2019-04-06T23:21:32.866Z,9.30
2019-04-06T23:26:30.678Z,7.23
2019-04-06T23:31:27.953Z,6.43
2019-04-06T23:36:25.055Z,10.37
2019-04-06T23:41:22.129Z,5.87
2019-04-06T23:46:19.311Z,6.80
2019-04-06T23:51:16.330Z,8.53
2019-04-06T23:56:13.732Z,10.23
